< < Back
Terminal Aerodrome Forecast


Current Version              Previous Versions:   1  2  3  4  5  6  7  8  9  

Terminal Aerodrome Forecast

280
FTUS44 KBMX 282329
TAFBHM
TAF
KBHM 282329Z 2900/2924 32005KT P6SM BKN070
     FM290300 00000KT P6SM FEW070
     FM291500 15006KT P6SM SCT250=



Latest METAR

373
SAUS70 KWBC 282300 RRB
MTRBHM
METAR KBHM 282253Z 30006KT 10SM FEW065 OVC095 09/M09 A3024 RMK AO2
SLP243 T00941089


USA.gov is the U.S. government's official web portal to all federal, state and local government web resources and services.